Time,TemperatureF,DewpointF,PressureIn,WindDirection,WindDirectionDegrees,WindSpeedMPH,WindSpeedGustMPH,Humidity,HourlyPrecipIn,Conditions,Clouds,dailyrainin,SolarRadiationWatts/m^2,SoftwareType,DateUTC
2013-03-03 00:04:00,51.6,48.7,30.08,West,261,0.0,0.0,90,0.00,,,0.00,0.0,meteohub,2013-03-03 08:04:00,
2013-03-03 00:10:00,51.4,48.6,30.08,West,261,0.0,0.0,90,0.00,,,0.00,0.0,meteohub,2013-03-03 08:10:00,
2013-03-03 00:17:00,51.4,48.9,30.09,West,261,0.0,0.0,91,0.00,,,0.00,0.0,meteohub,2013-03-03 08:17:00,
2013-03-03 00:22:00,51.4,48.9,30.09,West,261,0.0,0.0,91,0.00,,,0.00,0.0,meteohub,2013-03-03 08:22:00,
2013-03-03 00:27:00,51.4,48.9,30.09,West,261,0.0,0.0,91,0.00,,,0.00,0.0,meteohub,2013-03-03 08:27:00,
2013-03-03 00:32:00,51.4,48.9,30.09,West,261,0.0,0.0,91,0.00,,,0.00,0.0,meteohub,2013-03-03 08:32:00,
2013-03-03 00:37:00,51.4,48.9,30.09,West,261,0.0,0.0,91,0.00,,,0.00,0.0,meteohub,2013-03-03 08:37:00,
2013-03-03 00:42:00,51.4,49.3,30.09,West,261,0.0,0.0,92,0.00,,,0.00,0.0,meteohub,2013-03-03 08:42:00,
2013-03-03 00:47:00,51.3,48.7,30.09,West,261,0.0,0.0,91,0.00,,,0.00,0.0,meteohub,2013-03-03 08:47:00,
2013-03-03 00:52:00,51.3,48.7,30.09,West,261,0.0,0.0,91,0.00,,,0.00,0.0,meteohub,2013-03-03 08:52:00,
2013-03-03 00:57:00,51.1,48.6,30.09,West,261,0.0,0.0,91,0.00,,,0.00,0.0,meteohub,2013-03-03 08:57:00,
2013-03-03 01:02:00,51.1,48.9,30.09,West,261,0.0,0.0,92,0.00,,,0.00,0.0,meteohub,2013-03-03 09:02:00,
2013-03-03 01:07:00,50.9,48.7,30.09,West,261,0.0,0.0,92,0.00,,,0.00,0.0,meteohub,2013-03-03 09:07:00,
2013-03-03 01:12:00,50.9,48.7,30.09,West,261,0.0,0.0,92,0.00,,,0.00,0.0,meteohub,2013-03-03 09:12:00,
2013-03-03 01:17:00,50.9,48.7,30.09,West,261,0.0,0.0,92,0.00,,,0.00,0.0,meteohub,2013-03-03 09:17:00,
2013-03-03 01:22:00,50.9,48.7,30.09,West,261,0.0,0.0,92,0.00,,,0.00,0.0,meteohub,2013-03-03 09:22:00,
2013-03-03 01:27:00,50.9,48.7,30.09,West,261,0.0,0.0,92,0.00,,,0.00,0.0,meteohub,2013-03-03 09:27:00,
2013-03-03 01:32:00,50.7,48.6,30.09,West,261,0.0,0.0,92,0.00,,,0.00,0.0,meteohub,2013-03-03 09:32:00,
2013-03-03 01:37:00,50.7,48.6,30.09,West,261,0.0,0.0,92,0.00,,,0.00,0.0,meteohub,2013-03-03 09:37:00,
2013-03-03 01:42:00,50.5,48.6,30.10,West,261,0.0,0.0,93,0.00,,,0.00,0.0,meteohub,2013-03-03 09:42:00,
2013-03-03 01:47:00,50.5,48.6,30.10,West,261,0.0,0.0,93,0.00,,,0.00,0.0,meteohub,2013-03-03 09:47:00,
2013-03-03 01:52:00,50.7,48.7,30.10,West,261,0.0,0.0,93,0.00,,,0.00,0.0,meteohub,2013-03-03 09:52:00,
2013-03-03 01:57:00,50.7,48.7,30.10,West,261,0.0,0.0,93,0.00,,,0.00,0.0,meteohub,2013-03-03 09:57:00,
2013-03-03 02:02:00,50.5,48.6,30.09,West,261,0.0,0.0,93,0.00,,,0.00,0.0,meteohub,2013-03-03 10:02:00,
2013-03-03 02:07:00,50.5,48.6,30.09,West,261,0.0,0.0,93,0.00,,,0.00,0.0,meteohub,2013-03-03 10:07:00,
2013-03-03 02:12:00,50.5,48.6,30.09,West,261,0.0,0.0,93,0.00,,,0.00,0.0,meteohub,2013-03-03 10:12:00,
2013-03-03 02:17:00,50.4,48.4,30.09,West,261,0.0,0.0,93,0.00,,,0.00,0.0,meteohub,2013-03-03 10:17:00,
2013-03-03 02:22:00,50.4,48.4,30.09,West,261,0.0,0.0,93,0.00,,,0.00,0.0,meteohub,2013-03-03 10:22:00,
2013-03-03 02:27:00,50.4,48.4,30.09,West,261,0.0,0.0,93,0.00,,,0.00,0.0,meteohub,2013-03-03 10:27:00,
2013-03-03 02:32:00,50.4,48.4,30.09,West,261,0.0,0.0,93,0.00,,,0.00,0.0,meteohub,2013-03-03 10:32:00,
2013-03-03 02:37:00,50.4,48.4,30.09,West,261,0.0,0.0,93,0.00,,,0.00,0.0,meteohub,2013-03-03 10:37:00,
2013-03-03 02:42:00,50.4,48.4,30.09,West,261,0.0,0.0,93,0.00,,,0.00,0.0,meteohub,2013-03-03 10:42:00,
2013-03-03 02:47:00,50.4,48.4,30.09,West,261,0.0,0.0,93,0.00,,,0.00,0.0,meteohub,2013-03-03 10:47:00,
2013-03-03 02:52:00,50.4,48.4,30.09,West,261,0.0,0.0,93,0.00,,,0.00,0.0,meteohub,2013-03-03 10:52:00,
2013-03-03 02:57:00,50.2,48.2,30.09,West,261,0.0,0.0,93,0.00,,,0.00,0.0,meteohub,2013-03-03 10:57:00,
2013-03-03 03:02:00,50.2,48.2,30.09,West,261,0.0,0.0,93,0.00,,,0.00,0.0,meteohub,2013-03-03 11:02:00,
2013-03-03 03:08:00,50.4,48.4,30.09,West,261,0.0,0.0,93,0.00,,,0.00,0.0,meteohub,2013-03-03 11:08:00,
2013-03-03 03:14:00,50.2,48.2,30.09,West,261,0.0,0.0,93,0.00,,,0.00,0.0,meteohub,2013-03-03 11:14:00,
2013-03-03 03:21:00,50.2,48.2,30.08,West,261,0.0,0.0,93,0.00,,,0.00,0.0,meteohub,2013-03-03 11:21:00,
2013-03-03 03:27:00,50.2,48.2,30.08,West,261,0.0,0.0,93,0.00,,,0.00,0.0,meteohub,2013-03-03 11:27:00,
2013-03-03 03:32:00,50.2,48.2,30.09,West,261,0.0,0.0,93,0.00,,,0.00,0.0,meteohub,2013-03-03 11:32:00,
2013-03-03 03:37:00,50.2,48.2,30.09,West,261,0.0,0.0,93,0.00,,,0.00,0.0,meteohub,2013-03-03 11:37:00,
2013-03-03 03:42:00,50.0,48.0,30.09,West,261,0.0,0.0,93,0.00,,,0.00,0.0,meteohub,2013-03-03 11:42:00,
2013-03-03 03:47:00,50.0,48.0,30.09,West,261,0.0,0.0,93,0.00,,,0.00,0.0,meteohub,2013-03-03 11:47:00,
2013-03-03 03:53:00,50.0,48.0,30.09,West,261,0.0,0.0,93,0.00,,,0.00,0.0,meteohub,2013-03-03 11:53:00,
2013-03-03 04:00:00,50.2,48.6,30.09,West,261,0.0,0.0,94,0.00,,,0.00,0.0,meteohub,2013-03-03 12:00:00,
2013-03-03 04:06:00,50.2,48.6,30.09,West,261,0.0,0.0,94,0.00,,,0.00,0.0,meteohub,2013-03-03 12:06:00,
2013-03-03 04:12:00,50.2,48.2,30.08,West,261,0.0,0.0,93,0.00,,,0.00,0.0,meteohub,2013-03-03 12:12:00,
2013-03-03 04:17:00,50.2,48.2,30.08,West,261,0.0,0.0,93,0.00,,,0.00,0.0,meteohub,2013-03-03 12:17:00,
2013-03-03 04:22:00,50.0,48.0,30.09,West,261,0.0,0.0,93,0.00,,,0.00,0.0,meteohub,2013-03-03 12:22:00,
2013-03-03 04:27:00,50.0,48.0,30.09,West,261,0.0,0.0,93,0.00,,,0.00,0.0,meteohub,2013-03-03 12:27:00,
2013-03-03 04:32:00,49.8,47.8,30.09,West,261,0.0,0.0,93,0.00,,,0.00,0.0,meteohub,2013-03-03 12:32:00,
2013-03-03 04:37:00,49.8,47.8,30.09,West,261,0.0,0.0,93,0.00,,,0.00,0.0,meteohub,2013-03-03 12:37:00,
2013-03-03 04:42:00,49.8,47.8,30.09,WSW,246,0.0,0.0,93,0.00,,,0.00,0.0,meteohub,2013-03-03 12:42:00,
2013-03-03 04:47:00,49.6,47.7,30.09,WSW,246,0.0,0.0,93,0.00,,,0.00,0.0,meteohub,2013-03-03 12:47:00,
2013-03-03 04:52:00,49.6,47.7,30.09,WSW,246,0.0,0.0,93,0.00,,,0.00,0.0,meteohub,2013-03-03 12:52:00,
2013-03-03 04:57:00,49.6,47.7,30.09,WSW,246,0.0,0.0,93,0.00,,,0.00,0.0,meteohub,2013-03-03 12:57:00,
2013-03-03 05:02:00,49.6,47.7,30.09,WSW,246,0.0,0.0,93,0.00,,,0.00,0.0,meteohub,2013-03-03 13:02:00,
2013-03-03 05:07:00,49.6,47.7,30.09,WSW,246,0.0,0.0,93,0.00,,,0.00,0.0,meteohub,2013-03-03 13:07:00,
2013-03-03 05:12:00,49.6,47.7,30.09,WSW,246,0.0,0.0,93,0.00,,,0.00,0.0,meteohub,2013-03-03 13:12:00,
2013-03-03 05:17:00,49.6,47.7,30.09,WSW,246,0.0,0.0,93,0.00,,,0.00,0.0,meteohub,2013-03-03 13:17:00,
2013-03-03 05:22:00,49.6,47.7,30.09,WSW,246,0.0,0.0,93,0.00,,,0.00,0.0,meteohub,2013-03-03 13:22:00,
2013-03-03 05:28:00,49.5,47.5,30.09,WSW,246,0.0,0.0,93,0.00,,,0.00,0.0,meteohub,2013-03-03 13:28:00,
2013-03-03 05:34:00,49.5,47.5,30.09,WSW,246,0.0,0.0,93,0.00,,,0.00,0.0,meteohub,2013-03-03 13:34:00,
2013-03-03 05:40:00,49.5,47.5,30.09,WSW,246,0.0,0.0,93,0.00,,,0.00,0.0,meteohub,2013-03-03 13:40:00,
2013-03-03 05:46:00,49.3,47.3,30.09,WSW,246,0.0,0.0,93,0.00,,,0.00,0.0,meteohub,2013-03-03 13:46:00,
2013-03-03 05:52:00,49.3,47.3,30.09,WSW,246,0.0,0.0,93,0.00,,,0.00,0.0,meteohub,2013-03-03 13:52:00,
2013-03-03 05:57:00,49.3,47.3,30.09,WSW,246,0.0,0.0,93,0.00,,,0.00,0.0,meteohub,2013-03-03 13:57:00,
2013-03-03 06:02:00,49.3,47.7,30.09,WSW,246,0.0,0.0,94,0.00,,,0.00,0.0,meteohub,2013-03-03 14:02:00,
2013-03-03 06:07:00,49.3,47.7,30.09,WSW,246,0.0,0.0,94,0.00,,,0.00,0.0,meteohub,2013-03-03 14:07:00,
2013-03-03 06:12:00,49.5,47.8,30.09,WSW,246,0.0,0.0,94,0.00,,,0.00,0.0,meteohub,2013-03-03 14:12:00,
2013-03-03 06:17:00,49.3,47.7,30.09,WSW,246,0.0,0.0,94,0.00,,,0.00,0.0,meteohub,2013-03-03 14:17:00,
2013-03-03 06:22:00,49.3,47.7,30.09,WSW,246,0.0,0.0,94,0.00,,,0.00,0.0,meteohub,2013-03-03 14:22:00,
2013-03-03 06:27:00,49.3,47.7,30.09,WSW,246,0.0,0.0,94,0.00,,,0.00,0.0,meteohub,2013-03-03 14:27:00,
2013-03-03 06:32:00,49.3,47.7,30.09,WSW,246,0.0,0.0,94,0.00,,,0.00,0.0,meteohub,2013-03-03 14:32:00,
2013-03-03 06:37:00,49.3,47.7,30.09,WSW,246,0.0,0.0,94,0.00,,,0.00,0.0,meteohub,2013-03-03 14:37:00,
2013-03-03 06:42:00,49.1,47.5,30.10,WSW,246,0.0,0.0,94,0.00,,,0.00,0.0,meteohub,2013-03-03 14:42:00,
2013-03-03 06:47:00,49.1,47.5,30.10,WSW,246,0.0,0.0,94,0.00,,,0.00,0.0,meteohub,2013-03-03 14:47:00,
2013-03-03 06:52:00,49.1,47.5,30.10,WSW,246,0.0,0.0,94,0.00,,,0.00,0.0,meteohub,2013-03-03 14:52:00,
2013-03-03 06:57:00,49.1,47.5,30.10,WSW,246,0.0,0.0,94,0.00,,,0.00,5.0,meteohub,2013-03-03 14:57:00,
2013-03-03 07:02:00,48.9,47.3,30.09,WSW,246,0.0,0.0,94,0.00,,,0.00,9.0,meteohub,2013-03-03 15:02:00,
2013-03-03 07:07:00,49.1,47.5,30.09,WSW,246,0.0,0.0,94,0.00,,,0.00,12.0,meteohub,2013-03-03 15:07:00,
2013-03-03 07:12:00,48.9,47.3,30.09,WSW,246,0.0,0.0,94,0.00,,,0.00,18.0,meteohub,2013-03-03 15:12:00,
2013-03-03 07:17:00,48.9,47.3,30.10,WSW,246,0.0,0.0,94,0.00,,,0.00,25.0,meteohub,2013-03-03 15:17:00,
2013-03-03 07:22:00,48.9,47.3,30.09,WSW,246,0.0,0.0,94,0.00,,,0.00,30.0,meteohub,2013-03-03 15:22:00,
2013-03-03 07:27:00,48.9,47.3,30.09,WSW,246,0.0,0.0,94,0.00,,,0.00,35.0,meteohub,2013-03-03 15:27:00,
2013-03-03 07:32:00,48.9,47.3,30.09,WSW,247,0.0,0.0,94,0.00,,,0.00,35.0,meteohub,2013-03-03 15:32:00,
2013-03-03 07:37:00,49.1,47.5,30.09,WSW,246,0.0,0.0,94,0.00,,,0.00,28.0,meteohub,2013-03-03 15:37:00,
2013-03-03 07:42:00,49.1,47.5,30.09,WSW,246,0.0,0.0,94,0.00,,,0.00,30.0,meteohub,2013-03-03 15:42:00,
2013-03-03 07:47:00,49.1,47.5,30.09,WSW,246,0.0,0.0,94,0.00,,,0.00,35.0,meteohub,2013-03-03 15:47:00,
2013-03-03 07:52:00,48.9,47.3,30.09,WSW,246,0.0,0.0,94,0.00,,,0.00,47.0,meteohub,2013-03-03 15:52:00,
2013-03-03 07:57:00,48.9,47.3,30.10,WSW,246,0.0,0.0,94,0.00,,,0.00,76.0,meteohub,2013-03-03 15:57:00,
2013-03-03 08:02:00,49.1,47.5,30.10,WSW,246,0.0,0.0,94,0.00,,,0.00,84.0,meteohub,2013-03-03 16:02:00,
2013-03-03 08:07:00,49.3,47.7,30.10,WSW,246,0.0,0.0,94,0.00,,,0.00,77.0,meteohub,2013-03-03 16:07:00,
2013-03-03 08:12:00,49.5,48.0,30.10,WSW,246,0.0,0.0,95,0.00,,,0.00,202.0,meteohub,2013-03-03 16:12:00,
2013-03-03 08:17:00,49.8,48.4,30.10,WSW,246,0.0,0.0,95,0.00,,,0.00,97.0,meteohub,2013-03-03 16:17:00,
2013-03-03 08:22:00,50.2,48.6,30.10,WSW,246,0.0,0.0,94,0.00,,,0.00,118.0,meteohub,2013-03-03 16:22:00,
2013-03-03 08:28:00,50.4,48.7,30.10,WSW,246,0.0,0.0,94,0.00,,,0.00,139.0,meteohub,2013-03-03 16:28:00,
2013-03-03 08:34:00,50.5,48.9,30.10,WSW,246,0.0,0.0,94,0.00,,,0.00,137.0,meteohub,2013-03-03 16:34:00,
2013-03-03 08:40:00,50.7,48.7,30.10,WSW,246,0.0,0.0,93,0.00,,,0.00,142.0,meteohub,2013-03-03 16:40:00,
2013-03-03 08:46:00,51.1,49.1,30.10,WSW,246,0.0,0.0,93,0.00,,,0.00,269.0,meteohub,2013-03-03 16:46:00,
2013-03-03 08:52:00,51.6,49.5,30.09,WSW,246,0.0,0.0,92,0.00,,,0.00,278.0,meteohub,2013-03-03 16:52:00,
2013-03-03 08:57:00,52.0,49.1,30.09,SW,222,0.0,0.0,90,0.00,,,0.00,193.0,meteohub,2013-03-03 16:57:00,
2013-03-03 09:02:00,52.3,49.3,30.10,SW,222,0.0,0.0,89,0.00,,,0.00,267.0,meteohub,2013-03-03 17:02:00,
2013-03-03 09:07:00,52.5,49.5,30.10,SW,222,0.0,0.0,89,0.00,,,0.00,397.0,meteohub,2013-03-03 17:07:00,
2013-03-03 09:12:00,53.2,50.0,30.10,SW,222,0.0,0.0,89,0.00,,,0.00,515.0,meteohub,2013-03-03 17:12:00,
2013-03-03 09:17:00,54.1,50.4,30.10,SSW,194,0.0,0.0,87,0.00,,,0.00,534.0,meteohub,2013-03-03 17:17:00,
2013-03-03 09:22:00,54.7,50.2,30.10,South,183,0.0,0.0,85,0.00,,,0.00,246.0,meteohub,2013-03-03 17:22:00,
2013-03-03 09:27:00,54.9,50.4,30.10,South,183,0.0,0.0,85,0.00,,,0.00,174.0,meteohub,2013-03-03 17:27:00,
2013-03-03 09:33:00,54.9,50.2,30.10,South,183,0.0,0.0,84,0.00,,,0.00,258.0,meteohub,2013-03-03 17:33:00,
2013-03-03 09:39:00,55.2,50.5,30.10,South,183,0.0,0.0,84,0.00,,,0.00,253.0,meteohub,2013-03-03 17:39:00,
2013-03-03 09:45:00,55.8,51.3,30.09,South,183,0.0,0.0,85,0.00,,,0.00,629.0,meteohub,2013-03-03 17:45:00,
2013-03-03 09:52:00,56.7,50.9,30.09,South,183,0.0,0.0,81,0.00,,,0.00,417.0,meteohub,2013-03-03 17:52:00,
2013-03-03 09:57:00,57.6,51.1,30.09,South,183,0.0,0.0,79,0.00,,,0.00,353.0,meteohub,2013-03-03 17:57:00,
2013-03-03 10:02:00,58.1,51.3,30.09,South,183,0.0,0.0,78,0.00,,,0.00,367.0,meteohub,2013-03-03 18:02:00,
2013-03-03 10:07:00,58.5,51.6,30.09,South,183,0.0,0.0,78,0.00,,,0.00,406.0,meteohub,2013-03-03 18:07:00,
2013-03-03 10:12:00,58.6,51.4,30.09,South,183,0.0,0.0,77,0.00,,,0.00,506.0,meteohub,2013-03-03 18:12:00,
2013-03-03 10:18:00,59.4,51.4,30.09,SSE,165,0.0,0.0,75,0.00,,,0.00,624.0,meteohub,2013-03-03 18:18:00,
2013-03-03 10:24:00,60.1,52.2,30.08,SSE,149,0.0,0.0,75,0.00,,,0.00,621.0,meteohub,2013-03-03 18:24:00,
2013-03-03 10:30:00,60.8,52.5,30.08,SE,141,0.0,0.0,74,0.00,,,0.00,633.0,meteohub,2013-03-03 18:30:00,
2013-03-03 10:37:00,61.3,50.4,30.08,SW,227,0.0,0.0,67,0.00,,,0.00,643.0,meteohub,2013-03-03 18:37:00,
2013-03-03 10:42:00,60.6,50.0,30.08,SW,232,7.0,0.0,68,0.00,,,0.00,650.0,meteohub,2013-03-03 18:42:00,
2013-03-03 10:47:00,61.2,51.6,30.08,SSW,199,0.0,10.0,71,0.00,,,0.00,659.0,meteohub,2013-03-03 18:47:00,
2013-03-03 10:52:00,62.2,50.7,30.08,SSE,161,3.0,10.0,66,0.00,,,0.00,656.0,meteohub,2013-03-03 18:52:00,
2013-03-03 10:57:00,62.2,50.4,30.08,SW,232,7.0,10.0,65,0.00,,,0.00,668.0,meteohub,2013-03-03 18:57:00,
2013-03-03 11:02:00,61.7,49.8,30.08,SW,220,7.0,10.0,65,0.00,,,0.00,680.0,meteohub,2013-03-03 19:02:00,
2013-03-03 11:07:00,62.1,50.2,30.07,SW,229,6.0,10.0,65,0.00,,,0.00,682.0,meteohub,2013-03-03 19:07:00,
2013-03-03 11:13:00,62.6,51.1,30.07,SSW,206,1.0,10.0,66,0.00,,,0.00,677.0,meteohub,2013-03-03 19:13:00,
2013-03-03 11:20:00,62.4,50.0,30.07,WSW,240,6.0,13.0,64,0.00,,,0.00,664.0,meteohub,2013-03-03 19:20:00,
2013-03-03 11:26:00,62.1,50.2,30.07,West,261,7.0,13.0,65,0.00,,,0.00,731.0,meteohub,2013-03-03 19:26:00,
2013-03-03 11:32:00,61.9,50.0,30.07,WSW,245,7.0,13.0,65,0.00,,,0.00,735.0,meteohub,2013-03-03 19:32:00,
2013-03-03 11:37:00,62.6,50.2,30.06,WSW,242,10.0,12.0,64,0.00,,,0.00,715.0,meteohub,2013-03-03 19:37:00,
2013-03-03 11:42:00,63.0,50.5,30.06,WSW,250,5.0,13.0,64,0.00,,,0.00,701.0,meteohub,2013-03-03 19:42:00,
2013-03-03 11:47:00,63.9,51.1,30.06,SW,221,8.0,13.0,63,0.00,,,0.00,694.0,meteohub,2013-03-03 19:47:00,
2013-03-03 11:52:00,64.0,50.7,30.06,WSW,254,5.0,13.0,62,0.00,,,0.00,742.0,meteohub,2013-03-03 19:52:00,
2013-03-03 11:57:00,64.6,50.9,30.06,SE,142,7.0,9.0,61,0.00,,,0.00,740.0,meteohub,2013-03-03 19:57:00,
2013-03-03 12:02:00,65.3,51.1,30.06,WSW,255,5.0,9.0,60,0.00,,,0.00,756.0,meteohub,2013-03-03 20:02:00,
2013-03-03 12:09:00,65.1,50.9,30.06,SSE,155,0.0,10.0,60,0.00,,,0.00,765.0,meteohub,2013-03-03 20:09:00,
2013-03-03 12:15:00,65.8,51.1,30.05,SSE,155,4.0,10.0,59,0.00,,,0.00,754.0,meteohub,2013-03-03 20:15:00,
2013-03-03 12:21:00,65.8,50.2,30.05,WSW,253,1.0,10.0,57,0.00,,,0.00,756.0,meteohub,2013-03-03 20:21:00,
2013-03-03 12:27:00,65.8,50.2,30.05,SW,236,5.0,10.0,57,0.00,,,0.00,751.0,meteohub,2013-03-03 20:27:00,
2013-03-03 12:32:00,65.3,50.2,30.05,SW,233,7.0,10.0,58,0.00,,,0.00,749.0,meteohub,2013-03-03 20:32:00,
2013-03-03 12:37:00,65.5,50.4,30.05,South,178,0.0,11.0,58,0.00,,,0.00,745.0,meteohub,2013-03-03 20:37:00,
2013-03-03 12:43:00,66.0,51.3,30.05,ESE,119,2.0,11.0,59,0.00,,,0.00,742.0,meteohub,2013-03-03 20:43:00,
2013-03-03 12:50:00,65.1,50.0,30.04,SW,219,10.0,11.0,58,0.00,,,0.00,737.0,meteohub,2013-03-03 20:50:00,
2013-03-03 12:56:00,63.9,50.2,30.04,SSE,164,5.0,15.0,61,0.00,,,0.00,729.0,meteohub,2013-03-03 20:56:00,
2013-03-03 13:02:00,63.1,49.5,30.04,South,173,2.0,15.0,61,0.00,,,0.00,724.0,meteohub,2013-03-03 21:02:00,
2013-03-03 13:07:00,63.1,50.4,30.04,SSE,165,2.0,12.0,63,0.00,,,0.00,721.0,meteohub,2013-03-03 21:07:00,
2013-03-03 13:12:00,63.1,49.5,30.04,SW,215,10.0,11.0,61,0.00,,,0.00,715.0,meteohub,2013-03-03 21:12:00,
2013-03-03 13:17:00,61.9,49.6,30.04,South,174,5.0,13.0,64,0.00,,,0.00,708.0,meteohub,2013-03-03 21:17:00,
2013-03-03 13:22:00,61.5,49.3,30.04,SW,228,7.0,16.0,64,0.00,,,0.00,705.0,meteohub,2013-03-03 21:22:00,
2013-03-03 13:27:00,61.5,49.6,30.04,SE,142,6.0,16.0,65,0.00,,,0.00,696.0,meteohub,2013-03-03 21:27:00,
2013-03-03 13:32:00,61.3,49.8,30.03,WSW,240,7.0,13.0,66,0.00,,,0.00,693.0,meteohub,2013-03-03 21:32:00,
2013-03-03 13:37:00,61.9,50.0,30.03,SSW,207,12.0,13.0,65,0.00,,,0.00,689.0,meteohub,2013-03-03 21:37:00,
2013-03-03 13:42:00,61.5,49.6,30.03,WSW,247,1.0,13.0,65,0.00,,,0.00,680.0,meteohub,2013-03-03 21:42:00,
2013-03-03 13:47:00,61.2,49.3,30.03,WSW,242,11.0,13.0,65,0.00,,,0.00,677.0,meteohub,2013-03-03 21:47:00,
2013-03-03 13:52:00,60.4,49.5,30.03,WSW,244,2.0,14.0,67,0.00,,,0.00,682.0,meteohub,2013-03-03 21:52:00,
2013-03-03 13:57:00,60.4,49.5,30.03,SW,219,10.0,15.0,67,0.00,,,0.00,691.0,meteohub,2013-03-03 21:57:00,
2013-03-03 14:02:00,60.4,49.5,30.03,WSW,252,8.0,15.0,67,0.00,,,0.00,687.0,meteohub,2013-03-03 22:02:00,
2013-03-03 14:07:00,60.4,49.5,30.03,SSE,159,11.0,14.0,67,0.00,,,0.00,633.0,meteohub,2013-03-03 22:07:00,
2013-03-03 14:12:00,61.3,50.4,30.03,SE,140,1.0,14.0,67,0.00,,,0.00,628.0,meteohub,2013-03-03 22:12:00,
2013-03-03 14:17:00,61.9,50.0,30.03,WSW,237,6.0,13.0,65,0.00,,,0.00,601.0,meteohub,2013-03-03 22:17:00,
2013-03-03 14:24:00,62.2,50.0,30.03,SSW,213,1.0,12.0,64,0.00,,,0.00,473.0,meteohub,2013-03-03 22:24:00,
2013-03-03 14:30:00,62.2,49.5,30.03,South,180,4.0,11.0,63,0.00,,,0.00,610.0,meteohub,2013-03-03 22:30:00,
2013-03-03 14:36:00,62.2,50.0,30.03,SE,134,2.0,11.0,64,0.00,,,0.00,596.0,meteohub,2013-03-03 22:36:00,
2013-03-03 14:42:00,62.2,49.1,30.03,South,175,6.0,10.0,62,0.00,,,0.00,594.0,meteohub,2013-03-03 22:42:00,
2013-03-03 14:47:00,62.2,50.0,30.03,WSW,238,6.0,10.0,64,0.00,,,0.00,585.0,meteohub,2013-03-03 22:47:00,
2013-03-03 14:52:00,62.6,49.5,30.03,SSW,203,2.0,10.0,62,0.00,,,0.00,580.0,meteohub,2013-03-03 22:52:00,
2013-03-03 14:57:00,62.6,48.9,30.03,SSW,197,3.0,10.0,61,0.00,,,0.00,573.0,meteohub,2013-03-03 22:57:00,
2013-03-03 15:02:00,63.1,49.5,30.02,SSW,198,7.0,10.0,61,0.00,,,0.00,568.0,meteohub,2013-03-03 23:02:00,
2013-03-03 15:07:00,63.7,49.1,30.02,WSW,242,5.0,9.0,59,0.00,,,0.00,566.0,meteohub,2013-03-03 23:07:00,
2013-03-03 15:12:00,63.7,49.5,30.02,WSW,253,4.0,10.0,60,0.00,,,0.00,561.0,meteohub,2013-03-03 23:12:00,
2013-03-03 15:17:00,63.3,49.3,30.02,WSW,255,6.0,10.0,60,0.00,,,0.00,533.0,meteohub,2013-03-03 23:17:00,
2013-03-03 15:22:00,62.8,48.7,30.02,WSW,240,1.0,10.0,60,0.00,,,0.00,504.0,meteohub,2013-03-03 23:22:00,
2013-03-03 15:27:00,62.8,49.6,30.02,SW,221,8.0,11.0,62,0.00,,,0.00,475.0,meteohub,2013-03-03 23:27:00,
2013-03-03 15:32:00,62.6,48.9,30.02,SSW,203,6.0,11.0,61,0.00,,,0.00,475.0,meteohub,2013-03-03 23:32:00,
2013-03-03 15:37:00,62.4,49.3,30.02,WSW,246,6.0,10.0,62,0.00,,,0.00,450.0,meteohub,2013-03-03 23:37:00,
2013-03-03 15:42:00,62.4,49.3,30.02,SW,236,6.0,11.0,62,0.00,,,0.00,403.0,meteohub,2013-03-03 23:42:00,
2013-03-03 15:47:00,62.6,49.5,30.01,South,179,4.0,11.0,62,0.00,,,0.00,406.0,meteohub,2013-03-03 23:47:00,
2013-03-03 15:52:00,62.8,49.1,30.01,South,183,2.0,11.0,61,0.00,,,0.00,385.0,meteohub,2013-03-03 23:52:00,
2013-03-03 15:57:00,63.0,49.3,30.01,SW,223,2.0,9.0,61,0.00,,,0.00,366.0,meteohub,2013-03-03 23:57:00,
2013-03-03 16:02:00,63.3,49.6,30.02,South,185,4.0,9.0,61,0.00,,,0.00,346.0,meteohub,2013-03-04 00:02:00,
2013-03-03 16:07:00,63.1,49.1,30.02,South,187,1.0,8.0,60,0.00,,,0.00,329.0,meteohub,2013-03-04 00:07:00,
2013-03-03 16:12:00,63.1,49.5,30.01,SSE,159,1.0,8.0,61,0.00,,,0.00,283.0,meteohub,2013-03-04 00:12:00,
2013-03-03 16:17:00,62.8,49.6,30.02,SSW,192,0.0,8.0,62,0.00,,,0.00,67.0,meteohub,2013-03-04 00:17:00,
2013-03-03 16:22:00,61.9,49.1,30.01,WSW,247,4.0,9.0,63,0.00,,,0.00,100.0,meteohub,2013-03-04 00:22:00,
2013-03-03 16:27:00,61.2,48.9,30.02,SSW,206,1.0,9.0,64,0.00,,,0.00,70.0,meteohub,2013-03-04 00:27:00,
2013-03-03 16:32:00,60.4,49.5,30.02,SW,229,1.0,9.0,67,0.00,,,0.00,185.0,meteohub,2013-03-04 00:32:00,
2013-03-03 16:37:00,60.1,49.1,30.02,WSW,253,4.0,8.0,67,0.00,,,0.00,44.0,meteohub,2013-03-04 00:37:00,
2013-03-03 16:42:00,59.7,48.7,30.02,SW,219,5.0,8.0,67,0.00,,,0.00,40.0,meteohub,2013-03-04 00:42:00,
2013-03-03 16:47:00,59.4,48.7,30.02,WNW,291,2.0,8.0,68,0.00,,,0.00,37.0,meteohub,2013-03-04 00:47:00,
2013-03-03 16:52:00,59.2,49.5,30.02,West,270,1.0,8.0,70,0.00,,,0.00,35.0,meteohub,2013-03-04 00:52:00,
2013-03-03 16:57:00,58.8,49.1,30.02,West,271,1.0,8.0,70,0.00,,,0.00,33.0,meteohub,2013-03-04 00:57:00,
2013-03-03 17:02:00,58.6,49.6,30.02,West,276,1.0,6.0,72,0.00,,,0.00,32.0,meteohub,2013-03-04 01:02:00,
2013-03-03 17:07:00,58.3,49.6,30.02,West,276,1.0,5.0,73,0.00,,,0.00,30.0,meteohub,2013-03-04 01:07:00,
2013-03-03 17:13:00,57.4,48.7,30.02,West,276,2.0,4.0,73,0.00,,,0.00,28.0,meteohub,2013-03-04 01:13:00,
2013-03-03 17:19:00,57.0,48.7,30.02,West,276,4.0,4.0,74,0.00,,,0.00,25.0,meteohub,2013-03-04 01:19:00,
2013-03-03 17:25:00,56.8,49.3,30.02,West,276,1.0,5.0,76,0.00,,,0.00,23.0,meteohub,2013-03-04 01:25:00,
2013-03-03 17:32:00,56.7,49.1,30.02,West,274,2.0,5.0,76,0.00,,,0.00,21.0,meteohub,2013-03-04 01:32:00,
2013-03-03 17:37:00,56.5,48.9,30.03,West,277,0.0,4.0,76,0.00,,,0.00,19.0,meteohub,2013-03-04 01:37:00,
2013-03-03 17:42:00,56.5,48.9,30.03,West,277,0.0,4.0,76,0.00,,,0.00,18.0,meteohub,2013-03-04 01:42:00,
2013-03-03 17:47:00,56.5,48.9,30.03,West,277,0.0,4.0,76,0.00,,,0.00,14.0,meteohub,2013-03-04 01:47:00,
2013-03-03 17:52:00,56.3,48.9,30.03,West,277,0.0,2.0,76,0.00,,,0.00,12.0,meteohub,2013-03-04 01:52:00,
2013-03-03 17:57:00,56.3,48.9,30.03,West,277,2.0,2.0,76,0.00,,,0.00,9.0,meteohub,2013-03-04 01:57:00,
2013-03-03 18:02:00,55.9,48.6,30.03,West,277,0.0,2.0,76,0.00,,,0.00,7.0,meteohub,2013-03-04 02:02:00,
2013-03-03 18:07:00,55.8,48.4,30.04,West,277,2.0,2.0,76,0.00,,,0.00,0.0,meteohub,2013-03-04 02:07:00,
2013-03-03 18:12:00,55.0,47.7,30.03,WNW,290,1.0,4.0,76,0.00,,,0.00,0.0,meteohub,2013-03-04 02:12:00,
2013-03-03 18:17:00,54.9,48.2,30.03,WNW,290,1.0,5.0,78,0.00,,,0.00,0.0,meteohub,2013-03-04 02:17:00,
2013-03-03 18:22:00,54.3,48.0,30.03,WNW,290,1.0,5.0,79,0.00,,,0.00,0.0,meteohub,2013-03-04 02:22:00,
2013-03-03 18:27:00,54.0,48.0,30.04,WNW,290,0.0,4.0,80,0.00,,,0.00,0.0,meteohub,2013-03-04 02:27:00,
2013-03-03 18:32:00,53.8,48.0,30.04,WNW,289,2.0,3.0,81,0.00,,,0.00,0.0,meteohub,2013-03-04 02:32:00,
2013-03-03 18:37:00,53.6,47.8,30.04,WNW,289,0.0,2.0,81,0.00,,,0.00,0.0,meteohub,2013-03-04 02:37:00,
2013-03-03 18:42:00,53.4,47.5,30.04,West,281,1.0,2.0,80,0.00,,,0.00,0.0,meteohub,2013-03-04 02:42:00,
2013-03-03 18:47:00,53.1,47.3,30.04,West,281,0.0,3.0,81,0.00,,,0.00,0.0,meteohub,2013-03-04 02:47:00,
2013-03-03 18:52:00,52.7,47.3,30.05,West,281,1.0,3.0,82,0.00,,,0.00,0.0,meteohub,2013-03-04 02:52:00,
2013-03-03 18:57:00,52.3,47.3,30.05,West,281,0.0,3.0,83,0.00,,,0.00,0.0,meteohub,2013-03-04 02:57:00,
2013-03-03 19:02:00,52.2,47.1,30.05,West,281,0.0,2.0,83,0.00,,,0.00,0.0,meteohub,2013-03-04 03:02:00,
2013-03-03 19:07:00,52.0,47.3,30.05,West,281,0.0,2.0,84,0.00,,,0.00,0.0,meteohub,2013-03-04 03:07:00,
2013-03-03 19:12:00,52.0,47.3,30.05,West,281,0.0,0.0,84,0.00,,,0.00,0.0,meteohub,2013-03-04 03:12:00,
2013-03-03 19:17:00,51.6,46.9,30.05,West,281,0.0,0.0,84,0.00,,,0.00,0.0,meteohub,2013-03-04 03:17:00,
2013-03-03 19:22:00,51.4,46.8,30.05,West,281,0.0,0.0,84,0.00,,,0.00,0.0,meteohub,2013-03-04 03:22:00,
2013-03-03 19:27:00,51.3,46.9,30.05,West,281,0.0,0.0,85,0.00,,,0.00,0.0,meteohub,2013-03-04 03:27:00,
2013-03-03 19:32:00,51.3,46.9,30.05,West,281,0.0,0.0,85,0.00,,,0.00,0.0,meteohub,2013-03-04 03:32:00,
2013-03-03 19:37:00,51.3,46.9,30.06,West,281,0.0,0.0,85,0.00,,,0.00,0.0,meteohub,2013-03-04 03:37:00,
2013-03-03 19:42:00,50.7,46.4,30.06,West,281,0.0,0.0,85,0.00,,,0.00,0.0,meteohub,2013-03-04 03:42:00,
2013-03-03 19:47:00,50.5,46.6,30.06,West,281,0.0,0.0,86,0.00,,,0.00,0.0,meteohub,2013-03-04 03:47:00,
2013-03-03 19:52:00,50.4,46.4,30.06,West,281,0.0,0.0,86,0.00,,,0.00,0.0,meteohub,2013-03-04 03:52:00,
2013-03-03 19:57:00,50.2,46.2,30.06,West,281,0.0,0.0,86,0.00,,,0.00,0.0,meteohub,2013-03-04 03:57:00,
2013-03-03 20:02:00,50.2,46.4,30.06,West,281,0.0,0.0,87,0.00,,,0.00,0.0,meteohub,2013-03-04 04:02:00,
2013-03-03 20:07:00,50.0,46.2,30.06,West,281,0.0,0.0,87,0.00,,,0.00,0.0,meteohub,2013-03-04 04:07:00,
2013-03-03 20:12:00,49.8,46.0,30.06,West,281,0.0,0.0,87,0.00,,,0.00,0.0,meteohub,2013-03-04 04:12:00,
2013-03-03 20:17:00,49.8,46.4,30.06,NNE,22,1.0,0.0,88,0.00,,,0.00,0.0,meteohub,2013-03-04 04:17:00,
2013-03-03 20:22:00,50.0,46.6,30.06,NNE,28,1.0,5.0,88,0.00,,,0.00,0.0,meteohub,2013-03-04 04:22:00,
2013-03-03 20:27:00,50.2,46.4,30.06,NNE,28,3.0,5.0,87,0.00,,,0.00,0.0,meteohub,2013-03-04 04:27:00,
2013-03-03 20:32:00,50.0,46.2,30.07,NNE,28,0.0,5.0,87,0.00,,,0.00,0.0,meteohub,2013-03-04 04:32:00,
2013-03-03 20:37:00,49.8,46.0,30.07,NNE,28,0.0,4.0,87,0.00,,,0.00,0.0,meteohub,2013-03-04 04:37:00,
2013-03-03 20:42:00,49.6,45.9,30.07,NNE,29,0.0,4.0,87,0.00,,,0.00,0.0,meteohub,2013-03-04 04:42:00,
2013-03-03 20:47:00,49.6,45.9,30.07,NNE,29,0.0,4.0,87,0.00,,,0.00,0.0,meteohub,2013-03-04 04:47:00,
2013-03-03 20:52:00,49.5,46.0,30.08,NNE,29,0.0,4.0,88,0.00,,,0.00,0.0,meteohub,2013-03-04 04:52:00,
2013-03-03 20:57:00,49.3,45.9,30.08,ENE,57,0.0,1.0,88,0.00,,,0.00,0.0,meteohub,2013-03-04 04:57:00,
2013-03-03 21:00:00,49.1,45.7,30.08,ENE,75,1.0,5.0,88,0.00,,,0.00,0.0,meteohub,2013-03-04 05:00:00,
2013-03-03 21:02:00,48.9,45.5,30.08,ENE,75,0.0,5.0,88,0.00,,,0.00,0.0,meteohub,2013-03-04 05:02:00,
2013-03-03 21:07:00,48.7,45.3,30.08,ENE,74,0.0,5.0,88,0.00,,,0.00,0.0,meteohub,2013-03-04 05:07:00,
2013-03-03 21:12:00,48.7,45.3,30.08,ENE,74,0.0,4.0,88,0.00,,,0.00,0.0,meteohub,2013-03-04 05:12:00,
2013-03-03 21:15:00,48.7,45.7,30.08,ENE,74,0.0,4.0,89,0.00,,,0.00,0.0,meteohub,2013-03-04 05:15:00,
2013-03-03 21:17:00,48.7,45.7,30.08,ENE,74,0.0,2.0,89,0.00,,,0.00,0.0,meteohub,2013-03-04 05:17:00,
2013-03-03 21:22:00,48.6,45.5,30.08,ENE,74,0.0,1.0,89,0.00,,,0.00,0.0,meteohub,2013-03-04 05:22:00,
2013-03-03 21:27:00,48.6,45.5,30.09,ENE,74,1.0,1.0,89,0.00,,,0.00,0.0,meteohub,2013-03-04 05:27:00,
2013-03-03 21:32:00,48.2,45.1,30.09,ENE,71,0.0,2.0,89,0.00,,,0.00,0.0,meteohub,2013-03-04 05:32:00,
2013-03-03 21:37:00,48.2,45.3,30.09,ENE,71,0.0,2.0,90,0.00,,,0.00,0.0,meteohub,2013-03-04 05:37:00,
2013-03-03 21:42:00,48.2,45.3,30.09,ENE,71,0.0,2.0,90,0.00,,,0.00,0.0,meteohub,2013-03-04 05:42:00,
2013-03-03 21:47:00,48.2,45.3,30.09,ENE,71,0.0,2.0,90,0.00,,,0.00,0.0,meteohub,2013-03-04 05:47:00,
2013-03-03 21:53:00,48.0,45.1,30.09,ENE,71,0.0,1.0,90,0.00,,,0.00,0.0,meteohub,2013-03-04 05:53:00,
2013-03-03 22:00:00,48.0,45.1,30.10,ENE,71,0.0,0.0,90,0.00,,,0.00,0.0,meteohub,2013-03-04 06:00:00,
2013-03-03 22:06:00,47.7,45.0,30.10,ENE,71,0.0,0.0,90,0.00,,,0.00,0.0,meteohub,2013-03-04 06:06:00,
2013-03-03 22:12:00,47.5,44.8,30.10,ENE,71,0.0,0.0,90,0.00,,,0.00,0.0,meteohub,2013-03-04 06:12:00,
2013-03-03 22:17:00,47.3,44.8,30.10,ENE,71,0.0,0.0,91,0.00,,,0.00,0.0,meteohub,2013-03-04 06:17:00,
2013-03-03 22:22:00,47.3,44.8,30.10,ENE,71,0.0,0.0,91,0.00,,,0.00,0.0,meteohub,2013-03-04 06:22:00,
2013-03-03 22:27:00,47.3,45.1,30.09,ENE,71,0.0,0.0,92,0.00,,,0.00,0.0,meteohub,2013-03-04 06:27:00,
2013-03-03 22:32:00,47.5,45.3,30.09,ENE,71,0.0,0.0,92,0.00,,,0.00,0.0,meteohub,2013-03-04 06:32:00,
2013-03-03 22:37:00,47.5,45.3,30.09,ENE,71,0.0,0.0,92,0.00,,,0.00,0.0,meteohub,2013-03-04 06:37:00,
2013-03-03 22:42:00,47.5,45.3,30.09,ENE,71,0.0,0.0,92,0.00,,,0.00,0.0,meteohub,2013-03-04 06:42:00,
2013-03-03 22:47:00,47.7,45.5,30.09,ENE,71,0.0,0.0,92,0.00,,,0.00,0.0,meteohub,2013-03-04 06:47:00,
2013-03-03 22:52:00,47.7,45.5,30.09,ENE,71,0.0,0.0,92,0.00,,,0.00,0.0,meteohub,2013-03-04 06:52:00,
2013-03-03 22:57:00,47.7,45.5,30.09,ENE,71,0.0,0.0,92,0.00,,,0.00,0.0,meteohub,2013-03-04 06:57:00,
2013-03-03 23:02:00,47.8,45.7,30.09,ENE,71,0.0,0.0,92,0.00,,,0.00,0.0,meteohub,2013-03-04 07:02:00,
2013-03-03 23:07:00,47.8,45.3,30.09,ENE,71,0.0,0.0,91,0.00,,,0.00,0.0,meteohub,2013-03-04 07:07:00,
2013-03-03 23:12:00,47.8,45.3,30.09,ENE,71,0.0,0.0,91,0.00,,,0.00,0.0,meteohub,2013-03-04 07:12:00,
2013-03-03 23:17:00,47.7,45.1,30.09,ENE,71,0.0,0.0,91,0.00,,,0.00,0.0,meteohub,2013-03-04 07:17:00,
2013-03-03 23:22:00,47.5,45.0,30.09,ENE,71,0.0,0.0,91,0.00,,,0.00,0.0,meteohub,2013-03-04 07:22:00,
2013-03-03 23:27:00,47.5,45.3,30.09,ENE,71,0.0,0.0,92,0.00,,,0.00,0.0,meteohub,2013-03-04 07:27:00,
2013-03-03 23:32:00,47.5,45.3,30.09,ENE,71,0.0,0.0,92,0.00,,,0.00,0.0,meteohub,2013-03-04 07:32:00,
2013-03-03 23:38:00,47.5,45.3,30.09,South,173,0.0,4.0,92,0.00,,,0.00,0.0,meteohub,2013-03-04 07:38:00,
2013-03-03 23:44:00,47.5,45.3,30.10,South,177,0.0,5.0,92,0.00,,,0.00,0.0,meteohub,2013-03-04 07:44:00,
2013-03-03 23:50:00,47.5,45.3,30.10,South,177,1.0,4.0,92,0.00,,,0.00,0.0,meteohub,2013-03-04 07:50:00,
2013-03-03 23:56:00,47.5,45.3,30.09,South,177,0.0,4.0,92,0.00,,,0.00,0.0,meteohub,2013-03-04 07:56:00,